sensor_id;sensor_type;location;lat;lon;timestamp;temperature;humidity
25108;DHT22;13090;53.422;7.670;2022-07-06T00:00:13;18.20;59.80
25108;DHT22;13090;53.422;7.670;2022-07-06T00:05:15;18.20;60.40
25108;DHT22;13090;53.422;7.670;2022-07-06T00:10:17;18.20;60.30
25108;DHT22;13090;53.422;7.670;2022-07-06T00:15:21;18.30;60.50
25108;DHT22;13090;53.422;7.670;2022-07-06T00:20:23;18.30;60.60
25108;DHT22;13090;53.422;7.670;2022-07-06T00:25:26;18.30;60.40
25108;DHT22;13090;53.422;7.670;2022-07-06T00:30:30;18.30;60.30
25108;DHT22;13090;53.422;7.670;2022-07-06T00:35:33;18.30;60.60
25108;DHT22;13090;53.422;7.670;2022-07-06T00:40:35;18.30;60.60
25108;DHT22;13090;53.422;7.670;2022-07-06T00:45:39;18.30;60.70
25108;DHT22;13090;53.422;7.670;2022-07-06T00:50:41;18.40;61.10
25108;DHT22;13090;53.422;7.670;2022-07-06T00:55:44;18.40;60.80
25108;DHT22;13090;53.422;7.670;2022-07-06T01:00:48;18.40;60.60
25108;DHT22;13090;53.422;7.670;2022-07-06T01:05:51;18.30;60.60
25108;DHT22;13090;53.422;7.670;2022-07-06T01:10:53;18.30;60.60
25108;DHT22;13090;53.422;7.670;2022-07-06T01:15:57;18.30;60.70
25108;DHT22;13090;53.422;7.670;2022-07-06T01:21:12;18.20;61.00
25108;DHT22;13090;53.422;7.670;2022-07-06T01:26:16;18.20;61.40
25108;DHT22;13090;53.422;7.670;2022-07-06T01:31:21;18.20;60.70
25108;DHT22;13090;53.422;7.670;2022-07-06T01:36:26;18.20;60.80
25108;DHT22;13090;53.422;7.670;2022-07-06T01:41:28;18.20;60.90
25108;DHT22;13090;53.422;7.670;2022-07-06T01:46:30;18.20;60.60
25108;DHT22;13090;53.422;7.670;2022-07-06T01:51:34;18.10;60.60
25108;DHT22;13090;53.422;7.670;2022-07-06T01:56:37;18.10;60.80
25108;DHT22;13090;53.422;7.670;2022-07-06T02:01:39;18.00;60.60
25108;DHT22;13090;53.422;7.670;2022-07-06T02:06:43;17.90;60.60
25108;DHT22;13090;53.422;7.670;2022-07-06T02:11:45;17.90;61.10
25108;DHT22;13090;53.422;7.670;2022-07-06T02:16:48;17.90;61.30
25108;DHT22;13090;53.422;7.670;2022-07-06T02:21:51;17.90;61.50
25108;DHT22;13090;53.422;7.670;2022-07-06T02:26:54;17.80;61.60
25108;DHT22;13090;53.422;7.670;2022-07-06T02:31:56;17.80;61.40
25108;DHT22;13090;53.422;7.670;2022-07-06T02:37:00;17.80;61.50
25108;DHT22;13090;53.422;7.670;2022-07-06T02:42:03;17.80;61.80
25108;DHT22;13090;53.422;7.670;2022-07-06T02:47:05;17.70;61.70
25108;DHT22;13090;53.422;7.670;2022-07-06T02:52:09;17.70;61.70
25108;DHT22;13090;53.422;7.670;2022-07-06T02:57:12;17.60;61.90
25108;DHT22;13090;53.422;7.670;2022-07-06T03:02:14;17.60;61.80
25108;DHT22;13090;53.422;7.670;2022-07-06T03:07:18;17.60;62.10
25108;DHT22;13090;53.422;7.670;2022-07-06T03:12:20;17.60;62.30
25108;DHT22;13090;53.422;7.670;2022-07-06T03:17:22;17.50;62.40
25108;DHT22;13090;53.422;7.670;2022-07-06T03:22:26;17.50;62.40
25108;DHT22;13090;53.422;7.670;2022-07-06T03:27:29;17.50;62.60
25108;DHT22;13090;53.422;7.670;2022-07-06T03:32:31;17.40;62.60
25108;DHT22;13090;53.422;7.670;2022-07-06T03:37:35;17.40;62.50
25108;DHT22;13090;53.422;7.670;2022-07-06T03:42:38;17.40;62.70
25108;DHT22;13090;53.422;7.670;2022-07-06T03:47:40;17.40;62.70
25108;DHT22;13090;53.422;7.670;2022-07-06T03:52:44;17.30;62.80
25108;DHT22;13090;53.422;7.670;2022-07-06T03:57:47;17.30;63.10
25108;DHT22;13090;53.422;7.670;2022-07-06T04:02:49;17.20;62.90
25108;DHT22;13090;53.422;7.670;2022-07-06T04:07:53;17.20;63.40
25108;DHT22;13090;53.422;7.670;2022-07-06T04:12:55;17.20;63.70
25108;DHT22;13090;53.422;7.670;2022-07-06T04:17:58;17.30;63.90
25108;DHT22;13090;53.422;7.670;2022-07-06T04:23:02;17.30;63.90
25108;DHT22;13090;53.422;7.670;2022-07-06T04:28:04;17.30;64.20
25108;DHT22;13090;53.422;7.670;2022-07-06T04:33:07;17.40;64.20
25108;DHT22;13090;53.422;7.670;2022-07-06T04:38:11;17.40;64.30
25108;DHT22;13090;53.422;7.670;2022-07-06T04:43:13;17.50;64.70
25108;DHT22;13090;53.422;7.670;2022-07-06T04:48:16;17.50;64.50
25108;DHT22;13090;53.422;7.670;2022-07-06T04:53:19;17.60;64.50
25108;DHT22;13090;53.422;7.670;2022-07-06T04:58:22;17.70;64.60
25108;DHT22;13090;53.422;7.670;2022-07-06T05:03:25;17.80;64.50
25108;DHT22;13090;53.422;7.670;2022-07-06T05:08:29;17.90;64.50
25108;DHT22;13090;53.422;7.670;2022-07-06T05:13:31;18.00;64.60
25108;DHT22;13090;53.422;7.670;2022-07-06T05:18:34;18.10;64.30
25108;DHT22;13090;53.422;7.670;2022-07-06T05:23:38;18.30;64.10
25108;DHT22;13090;53.422;7.670;2022-07-06T05:28:40;18.40;64.00
25108;DHT22;13090;53.422;7.670;2022-07-06T05:33:43;18.50;63.60
25108;DHT22;13090;53.422;7.670;2022-07-06T05:38:47;18.60;63.50
25108;DHT22;13090;53.422;7.670;2022-07-06T05:43:49;18.70;63.40
25108;DHT22;13090;53.422;7.670;2022-07-06T05:48:52;18.80;63.30
25108;DHT22;13090;53.422;7.670;2022-07-06T05:53:55;19.00;63.30
25108;DHT22;13090;53.422;7.670;2022-07-06T05:58:58;19.10;63.40
25108;DHT22;13090;53.422;7.670;2022-07-06T06:04:00;19.30;62.70
25108;DHT22;13090;53.422;7.670;2022-07-06T06:09:04;19.40;62.60
25108;DHT22;13090;53.422;7.670;2022-07-06T06:14:07;19.60;62.00
25108;DHT22;13090;53.422;7.670;2022-07-06T06:19:09;19.60;61.90
25108;DHT22;13090;53.422;7.670;2022-07-06T06:24:13;19.80;61.60
25108;DHT22;13090;53.422;7.670;2022-07-06T06:29:16;19.90;61.40
25108;DHT22;13090;53.422;7.670;2022-07-06T06:34:18;19.90;61.30
25108;DHT22;13090;53.422;7.670;2022-07-06T06:39:22;20.10;61.20
25108;DHT22;13090;53.422;7.670;2022-07-06T06:44:25;20.20;60.90
25108;DHT22;13090;53.422;7.670;2022-07-06T06:49:27;20.40;60.60
25108;DHT22;13090;53.422;7.670;2022-07-06T06:54:31;20.50;60.40
25108;DHT22;13090;53.422;7.670;2022-07-06T06:59:34;20.70;59.90
25108;DHT22;13090;53.422;7.670;2022-07-06T07:04:36;20.80;59.50
25108;DHT22;13090;53.422;7.670;2022-07-06T07:09:40;20.90;59.30
25108;DHT22;13090;53.422;7.670;2022-07-06T07:14:43;21.10;59.20
25108;DHT22;13090;53.422;7.670;2022-07-06T07:19:45;21.30;59.40
25108;DHT22;13090;53.422;7.670;2022-07-06T07:24:49;21.60;59.10
25108;DHT22;13090;53.422;7.670;2022-07-06T07:29:52;21.80;58.60
25108;DHT22;13090;53.422;7.670;2022-07-06T07:34:55;22.10;58.50
25108;DHT22;13090;53.422;7.670;2022-07-06T07:39:59;22.30;57.90
25108;DHT22;13090;53.422;7.670;2022-07-06T07:45:02;22.40;57.30
25108;DHT22;13090;53.422;7.670;2022-07-06T07:50:06;22.50;57.10
25108;DHT22;13090;53.422;7.670;2022-07-06T07:55:11;22.60;56.80
25108;DHT22;13090;53.422;7.670;2022-07-06T08:00:33;22.70;56.50
25108;DHT22;13090;53.422;7.670;2022-07-06T08:05:36;22.80;56.60
25108;DHT22;13090;53.422;7.670;2022-07-06T08:10:40;23.00;56.40
25108;DHT22;13090;53.422;7.670;2022-07-06T08:16:03;23.20;55.50
25108;DHT22;13090;53.422;7.670;2022-07-06T08:21:06;23.30;55.10
25108;DHT22;13090;53.422;7.670;2022-07-06T08:26:28;23.30;54.70
25108;DHT22;13090;53.422;7.670;2022-07-06T08:31:31;23.20;54.30
25108;DHT22;13090;53.422;7.670;2022-07-06T08:36:53;23.00;54.10
25108;DHT22;13090;53.422;7.670;2022-07-06T08:41:59;22.50;54.30
25108;DHT22;13090;53.422;7.670;2022-07-06T08:47:05;22.00;55.20
25108;DHT22;13090;53.422;7.670;2022-07-06T08:52:08;21.50;56.20
25108;DHT22;13090;53.422;7.670;2022-07-06T08:57:13;21.20;57.20
25108;DHT22;13090;53.422;7.670;2022-07-06T09:02:15;21.10;58.10
25108;DHT22;13090;53.422;7.670;2022-07-06T09:07:20;21.30;58.80
25108;DHT22;13090;53.422;7.670;2022-07-06T09:12:44;21.60;59.30
25108;DHT22;13090;53.422;7.670;2022-07-06T09:17:47;22.50;60.50
25108;DHT22;13090;53.422;7.670;2022-07-06T09:22:49;23.80;60.00
25108;DHT22;13090;53.422;7.670;2022-07-06T09:27:53;25.00;57.50
25108;DHT22;13090;53.422;7.670;2022-07-06T09:32:57;25.50;54.70
25108;DHT22;13090;53.422;7.670;2022-07-06T09:38:04;25.60;52.90
25108;DHT22;13090;53.422;7.670;2022-07-06T09:43:14;25.30;52.40
25108;DHT22;13090;53.422;7.670;2022-07-06T09:48:18;25.30;53.00
25108;DHT22;13090;53.422;7.670;2022-07-06T09:53:22;25.70;54.10
25108;DHT22;13090;53.422;7.670;2022-07-06T09:58:27;26.30;52.90
25108;DHT22;13090;53.422;7.670;2022-07-06T10:03:49;26.40;50.40
25108;DHT22;13090;53.422;7.670;2022-07-06T10:08:53;26.00;49.70
25108;DHT22;13090;53.422;7.670;2022-07-06T10:13:57;25.50;49.90
25108;DHT22;13090;53.422;7.670;2022-07-06T10:19:02;25.20;50.40
25108;DHT22;13090;53.422;7.670;2022-07-06T10:24:08;25.00;50.50
25108;DHT22;13090;53.422;7.670;2022-07-06T10:29:13;25.10;51.20
25108;DHT22;13090;53.422;7.670;2022-07-06T10:34:18;25.20;50.30
25108;DHT22;13090;53.422;7.670;2022-07-06T10:39:33;25.50;51.90
25108;DHT22;13090;53.422;7.670;2022-07-06T10:44:45;26.20;50.40
25108;DHT22;13090;53.422;7.670;2022-07-06T10:49:49;26.80;49.70
25108;DHT22;13090;53.422;7.670;2022-07-06T10:55:01;27.50;49.80
25108;DHT22;13090;53.422;7.670;2022-07-06T11:00:07;28.40;47.70
25108;DHT22;13090;53.422;7.670;2022-07-06T11:05:12;28.70;46.70
25108;DHT22;13090;53.422;7.670;2022-07-06T11:10:54;28.90;46.10
25108;DHT22;13090;53.422;7.670;2022-07-06T11:16:02;29.00;45.50
25108;DHT22;13090;53.422;7.670;2022-07-06T11:21:19;29.20;44.70
25108;DHT22;13090;53.422;7.670;2022-07-06T11:26:23;29.40;44.30
25108;DHT22;13090;53.422;7.670;2022-07-06T11:31:27;29.70;44.00
25108;DHT22;13090;53.422;7.670;2022-07-06T11:36:29;29.80;43.50
25108;DHT22;13090;53.422;7.670;2022-07-06T11:41:38;29.80;43.10
25108;DHT22;13090;53.422;7.670;2022-07-06T11:46:42;29.70;42.30
25108;DHT22;13090;53.422;7.670;2022-07-06T11:51:46;29.50;42.20
25108;DHT22;13090;53.422;7.670;2022-07-06T11:56:49;29.40;42.10
25108;DHT22;13090;53.422;7.670;2022-07-06T12:02:00;29.40;41.90
25108;DHT22;13090;53.422;7.670;2022-07-06T12:07:05;29.20;41.00
25108;DHT22;13090;53.422;7.670;2022-07-06T12:12:09;29.00;42.00
25108;DHT22;13090;53.422;7.670;2022-07-06T12:17:14;29.00;42.40
25108;DHT22;13090;53.422;7.670;2022-07-06T12:22:24;29.10;42.70
25108;DHT22;13090;53.422;7.670;2022-07-06T12:27:27;29.10;42.40
25108;DHT22;13090;53.422;7.670;2022-07-06T12:32:31;28.90;42.00
25108;DHT22;13090;53.422;7.670;2022-07-06T12:37:34;28.60;42.30
25108;DHT22;13090;53.422;7.670;2022-07-06T12:42:45;28.40;42.50
25108;DHT22;13090;53.422;7.670;2022-07-06T12:47:59;28.20;42.30
25108;DHT22;13090;53.422;7.670;2022-07-06T12:53:03;28.00;42.30
25108;DHT22;13090;53.422;7.670;2022-07-06T12:58:05;27.90;42.60
25108;DHT22;13090;53.422;7.670;2022-07-06T13:03:10;27.90;42.30
25108;DHT22;13090;53.422;7.670;2022-07-06T13:08:13;27.90;41.80
25108;DHT22;13090;53.422;7.670;2022-07-06T13:13:16;27.90;41.60
25108;DHT22;13090;53.422;7.670;2022-07-06T13:18:20;27.80;42.10
25108;DHT22;13090;53.422;7.670;2022-07-06T13:23:22;27.80;42.10
25108;DHT22;13090;53.422;7.670;2022-07-06T13:28:25;27.90;42.10
25108;DHT22;13090;53.422;7.670;2022-07-06T13:33:29;27.80;42.30
25108;DHT22;13090;53.422;7.670;2022-07-06T13:38:32;27.80;42.50
25108;DHT22;13090;53.422;7.670;2022-07-06T13:43:34;27.80;42.10
25108;DHT22;13090;53.422;7.670;2022-07-06T13:48:38;27.90;42.20
25108;DHT22;13090;53.422;7.670;2022-07-06T13:53:40;27.80;41.80
25108;DHT22;13090;53.422;7.670;2022-07-06T13:58:43;27.70;42.00
25108;DHT22;13090;53.422;7.670;2022-07-06T14:03:47;27.70;42.30
25108;DHT22;13090;53.422;7.670;2022-07-06T14:08:50;27.70;42.20
25108;DHT22;13090;53.422;7.670;2022-07-06T14:13:52;27.60;42.30
25108;DHT22;13090;53.422;7.670;2022-07-06T14:18:57;27.50;41.90
25108;DHT22;13090;53.422;7.670;2022-07-06T14:23:59;27.30;41.80
25108;DHT22;13090;53.422;7.670;2022-07-06T14:29:01;27.10;42.20
25108;DHT22;13090;53.422;7.670;2022-07-06T14:34:06;26.90;42.50
25108;DHT22;13090;53.422;7.670;2022-07-06T14:39:08;26.60;42.50
25108;DHT22;13090;53.422;7.670;2022-07-06T14:44:10;26.40;42.70
25108;DHT22;13090;53.422;7.670;2022-07-06T14:49:14;26.20;43.00
25108;DHT22;13090;53.422;7.670;2022-07-06T14:54:22;25.90;43.50
25108;DHT22;13090;53.422;7.670;2022-07-06T14:59:25;25.70;43.60
25108;DHT22;13090;53.422;7.670;2022-07-06T15:04:32;25.40;43.50
25108;DHT22;13090;53.422;7.670;2022-07-06T15:09:35;25.20;43.70
25108;DHT22;13090;53.422;7.670;2022-07-06T15:14:39;25.00;43.90
25108;DHT22;13090;53.422;7.670;2022-07-06T15:19:46;24.70;44.10
25108;DHT22;13090;53.422;7.670;2022-07-06T15:24:55;24.40;44.50
25108;DHT22;13090;53.422;7.670;2022-07-06T15:29:57;24.20;44.80
25108;DHT22;13090;53.422;7.670;2022-07-06T15:35:01;24.00;45.10
25108;DHT22;13090;53.422;7.670;2022-07-06T15:40:05;23.80;45.50
25108;DHT22;13090;53.422;7.670;2022-07-06T15:45:09;23.50;45.70
25108;DHT22;13090;53.422;7.670;2022-07-06T15:50:13;23.40;46.20
25108;DHT22;13090;53.422;7.670;2022-07-06T15:55:16;23.30;46.50
25108;DHT22;13090;53.422;7.670;2022-07-06T16:00:19;23.20;46.70
25108;DHT22;13090;53.422;7.670;2022-07-06T16:05:23;23.20;47.10
25108;DHT22;13090;53.422;7.670;2022-07-06T16:10:26;23.10;47.20
25108;DHT22;13090;53.422;7.670;2022-07-06T16:15:29;23.10;47.40
25108;DHT22;13090;53.422;7.670;2022-07-06T16:20:33;23.00;47.40
25108;DHT22;13090;53.422;7.670;2022-07-06T16:25:35;22.80;48.00
25108;DHT22;13090;53.422;7.670;2022-07-06T16:30:37;22.60;48.30
25108;DHT22;13090;53.422;7.670;2022-07-06T16:35:41;22.40;48.80
25108;DHT22;13090;53.422;7.670;2022-07-06T16:40:50;22.30;49.30
25108;DHT22;13090;53.422;7.670;2022-07-06T16:45:53;22.20;49.70
25108;DHT22;13090;53.422;7.670;2022-07-06T16:50:57;22.20;50.00
25108;DHT22;13090;53.422;7.670;2022-07-06T16:56:00;22.10;50.50
25108;DHT22;13090;53.422;7.670;2022-07-06T17:01:02;22.00;50.70
25108;DHT22;13090;53.422;7.670;2022-07-06T17:06:06;21.90;50.90
25108;DHT22;13090;53.422;7.670;2022-07-06T17:11:09;21.70;51.50
25108;DHT22;13090;53.422;7.670;2022-07-06T17:16:12;21.60;52.00
25108;DHT22;13090;53.422;7.670;2022-07-06T17:21:16;21.50;52.50
25108;DHT22;13090;53.422;7.670;2022-07-06T17:26:19;21.30;53.20
25108;DHT22;13090;53.422;7.670;2022-07-06T17:31:21;21.10;53.50
25108;DHT22;13090;53.422;7.670;2022-07-06T17:36:25;20.90;54.00
25108;DHT22;13090;53.422;7.670;2022-07-06T17:41:27;20.60;55.80
25108;DHT22;13090;53.422;7.670;2022-07-06T17:46:30;20.40;55.70
25108;DHT22;13090;53.422;7.670;2022-07-06T17:51:34;20.20;56.20
25108;DHT22;13090;53.422;7.670;2022-07-06T17:56:37;19.90;57.20
25108;DHT22;13090;53.422;7.670;2022-07-06T18:01:39;19.70;57.70
25108;DHT22;13090;53.422;7.670;2022-07-06T18:06:43;19.40;58.40
25108;DHT22;13090;53.422;7.670;2022-07-06T18:11:46;19.20;59.00
25108;DHT22;13090;53.422;7.670;2022-07-06T18:16:55;19.10;59.30
25108;DHT22;13090;53.422;7.670;2022-07-06T18:21:59;18.90;59.80
25108;DHT22;13090;53.422;7.670;2022-07-06T18:27:02;18.80;60.60
25108;DHT22;13090;53.422;7.670;2022-07-06T18:32:05;18.70;61.20
25108;DHT22;13090;53.422;7.670;2022-07-06T18:37:10;18.70;62.30
25108;DHT22;13090;53.422;7.670;2022-07-06T18:42:12;18.60;63.20
25108;DHT22;13090;53.422;7.670;2022-07-06T18:47:15;18.50;63.40
25108;DHT22;13090;53.422;7.670;2022-07-06T18:52:19;18.40;64.20
25108;DHT22;13090;53.422;7.670;2022-07-06T18:57:21;18.30;64.80
25108;DHT22;13090;53.422;7.670;2022-07-06T19:02:24;18.20;64.70
25108;DHT22;13090;53.422;7.670;2022-07-06T19:07:28;18.20;65.30
25108;DHT22;13090;53.422;7.670;2022-07-06T19:12:31;18.10;66.00
25108;DHT22;13090;53.422;7.670;2022-07-06T19:17:33;18.00;65.80
25108;DHT22;13090;53.422;7.670;2022-07-06T19:22:39;18.00;66.50
25108;DHT22;13090;53.422;7.670;2022-07-06T19:27:43;18.00;67.00
25108;DHT22;13090;53.422;7.670;2022-07-06T19:32:48;17.90;67.10
25108;DHT22;13090;53.422;7.670;2022-07-06T19:37:52;17.90;66.80
25108;DHT22;13090;53.422;7.670;2022-07-06T19:42:55;17.90;68.00
25108;DHT22;13090;53.422;7.670;2022-07-06T19:47:57;17.80;67.60
25108;DHT22;13090;53.422;7.670;2022-07-06T19:53:01;17.80;67.90
25108;DHT22;13090;53.422;7.670;2022-07-06T19:58:04;17.70;68.40
25108;DHT22;13090;53.422;7.670;2022-07-06T20:03:06;17.70;68.60
25108;DHT22;13090;53.422;7.670;2022-07-06T20:08:10;17.80;68.90
25108;DHT22;13090;53.422;7.670;2022-07-06T20:13:13;17.70;69.40
25108;DHT22;13090;53.422;7.670;2022-07-06T20:18:15;17.80;69.40
25108;DHT22;13090;53.422;7.670;2022-07-06T20:23:20;17.80;69.50
25108;DHT22;13090;53.422;7.670;2022-07-06T20:28:25;17.80;69.90
25108;DHT22;13090;53.422;7.670;2022-07-06T20:33:28;17.80;69.80
25108;DHT22;13090;53.422;7.670;2022-07-06T20:38:33;17.90;70.00
25108;DHT22;13090;53.422;7.670;2022-07-06T20:43:35;17.90;70.50
25108;DHT22;13090;53.422;7.670;2022-07-06T20:48:39;17.90;70.50
25108;DHT22;13090;53.422;7.670;2022-07-06T20:53:43;17.90;70.80
25108;DHT22;13090;53.422;7.670;2022-07-06T20:58:45;17.90;71.20
25108;DHT22;13090;53.422;7.670;2022-07-06T21:04:08;18.00;71.20
25108;DHT22;13090;53.422;7.670;2022-07-06T21:09:12;18.00;71.30
25108;DHT22;13090;53.422;7.670;2022-07-06T21:14:14;18.00;71.80
25108;DHT22;13090;53.422;7.670;2022-07-06T21:19:17;18.00;71.60
25108;DHT22;13090;53.422;7.670;2022-07-06T21:24:21;18.00;71.80
25108;DHT22;13090;53.422;7.670;2022-07-06T21:29:23;18.00;72.30
25108;DHT22;13090;53.422;7.670;2022-07-06T21:34:25;18.10;72.20
25108;DHT22;13090;53.422;7.670;2022-07-06T21:39:29;18.10;72.40
25108;DHT22;13090;53.422;7.670;2022-07-06T21:44:32;18.20;72.70
25108;DHT22;13090;53.422;7.670;2022-07-06T21:49:34;18.20;72.70
25108;DHT22;13090;53.422;7.670;2022-07-06T21:54:38;18.30;72.70
25108;DHT22;13090;53.422;7.670;2022-07-06T21:59:41;18.30;73.00
25108;DHT22;13090;53.422;7.670;2022-07-06T22:04:43;18.40;72.90
25108;DHT22;13090;53.422;7.670;2022-07-06T22:09:47;18.40;73.00
25108;DHT22;13090;53.422;7.670;2022-07-06T22:14:50;18.40;73.50
25108;DHT22;13090;53.422;7.670;2022-07-06T22:19:52;18.50;73.40
25108;DHT22;13090;53.422;7.670;2022-07-06T22:25:02;18.50;73.60
25108;DHT22;13090;53.422;7.670;2022-07-06T22:30:06;18.50;74.00
25108;DHT22;13090;53.422;7.670;2022-07-06T22:35:09;18.50;74.10
25108;DHT22;13090;53.422;7.670;2022-07-06T22:40:13;18.50;74.10
25108;DHT22;13090;53.422;7.670;2022-07-06T22:45:16;18.60;74.40
25108;DHT22;13090;53.422;7.670;2022-07-06T22:50:18;18.60;74.30
25108;DHT22;13090;53.422;7.670;2022-07-06T22:55:22;18.60;74.40
25108;DHT22;13090;53.422;7.670;2022-07-06T23:00:24;18.70;74.80
25108;DHT22;13090;53.422;7.670;2022-07-06T23:05:27;18.70;74.70
25108;DHT22;13090;53.422;7.670;2022-07-06T23:10:31;18.70;74.90
25108;DHT22;13090;53.422;7.670;2022-07-06T23:15:33;18.70;75.10
25108;DHT22;13090;53.422;7.670;2022-07-06T23:20:36;18.70;75.20
25108;DHT22;13090;53.422;7.670;2022-07-06T23:25:45;18.70;75.20
25108;DHT22;13090;53.422;7.670;2022-07-06T23:30:48;18.80;76.60
25108;DHT22;13090;53.422;7.670;2022-07-06T23:35:50;18.70;75.50
25108;DHT22;13090;53.422;7.670;2022-07-06T23:40:54;18.70;75.50
25108;DHT22;13090;53.422;7.670;2022-07-06T23:45:57;18.80;75.80
25108;DHT22;13090;53.422;7.670;2022-07-06T23:50:59;18.80;75.60
25108;DHT22;13090;53.422;7.670;2022-07-06T23:56:03;18.80;75.60
